Time;durP1;ratioP1;P1;durP2;ratioP2;P2;SDS_P1;SDS_P2;PMS_P1;PMS_P2;Temp;Humidity;BMP_temperature;BMP_pressure;BME280_temperature;BME280_humidity;BME280_pressure;Samples;Min_cycle;Max_cycle;Signal;HPM_P1;HPM_P2
2022/10/26 00:00:21;;;;;;;10.18;7.97;;;;;;;12.96;78.95;99188.19;1773843;80;20994;-41
2022/10/26 00:02:48;;;;;;;10.63;8.95;;;;;;;12.90;79.20;99189.70;1774258;80;21037;-41
2022/10/26 00:05:14;;;;;;;16.57;10.38;;;;;;;12.83;79.38;99190.42;1773957;80;21948;-41
2022/10/26 00:07:41;;;;;;;14.68;10.45;;;;;;;12.81;79.65;99192.75;1773766;80;21004;-41
2022/10/26 00:10:09;;;;;;;15.68;10.98;;;;;;;12.76;79.89;99194.47;1774072;80;21528;-41
2022/10/26 00:12:36;;;;;;;14.10;10.60;;;;;;;12.71;80.19;99192.67;1773977;80;20957;-41
2022/10/26 00:15:06;;;;;;;14.35;10.48;;;;;;;12.66;80.44;99194.38;1773916;80;20962;-41
2022/10/26 00:17:34;;;;;;;13.15;10.53;;;;;;;12.67;80.65;99187.21;1774332;80;21542;-41
2022/10/26 00:20:03;;;;;;;19.73;12.10;;;;;;;12.69;80.81;99191.68;1773911;80;21022;-41
2022/10/26 00:22:29;;;;;;;15.80;10.82;;;;;;;12.71;80.95;99195.39;1774162;80;20929;-41
2022/10/26 00:24:56;;;;;;;15.70;11.12;;;;;;;12.71;81.01;99193.45;1773966;80;20936;-41
2022/10/26 00:27:23;;;;;;;14.95;10.75;;;;;;;12.74;80.88;99193.27;1774051;80;21373;-41
2022/10/26 00:29:49;;;;;;;13.30;10.70;;;;;;;12.79;80.64;99193.70;1773996;80;23181;-41
2022/10/26 00:32:16;;;;;;;14.55;10.58;;;;;;;12.84;80.37;99196.64;1774061;80;21515;-41
2022/10/26 00:34:45;;;;;;;15.28;11.30;;;;;;;12.83;80.55;99193.14;1774254;80;20949;-41
2022/10/26 00:37:12;;;;;;;12.70;10.30;;;;;;;12.85;80.35;99191.41;1773573;80;21076;-41
2022/10/26 00:39:40;;;;;;;15.15;10.65;;;;;;;12.84;80.17;99191.20;1774219;80;20965;-41
2022/10/26 00:42:14;;;;;;;14.28;10.70;;;;;;;12.86;80.00;99200.56;1774398;80;21139;-41
2022/10/26 00:44:57;;;;;;;14.30;10.53;;;;;;;12.85;79.94;99199.58;1774021;80;20930;-41
2022/10/26 00:47:38;;;;;;;14.18;9.70;;;;;;;12.80;80.10;99199.92;1774383;80;21056;-41
2022/10/26 00:50:19;;;;;;;14.70;10.98;;;;;;;12.74;80.35;99199.49;1773970;80;21596;-41
2022/10/26 00:52:47;;;;;;;13.03;11.25;;;;;;;12.71;80.37;99200.83;1770931;80;21076;-41
2022/10/26 00:55:14;;;;;;;14.43;10.78;;;;;;;12.69;80.41;99205.28;1774386;80;21472;-41
2022/10/26 00:57:40;;;;;;;14.47;11.80;;;;;;;12.72;80.57;99200.47;1773945;80;20930;-41
2022/10/26 01:00:10;;;;;;;15.72;11.57;;;;;;;12.72;80.71;99202.40;1774279;80;20961;-41
2022/10/26 01:02:37;;;;;;;15.63;10.60;;;;;;;12.72;80.82;99204.55;1774154;80;21068;-41
2022/10/26 01:05:05;;;;;;;15.80;11.15;;;;;;;12.74;80.73;99204.93;1774197;80;21017;-41
2022/10/26 01:07:34;;;;;;;;;;;;;;;12.80;80.53;99208.87;1779665;80;21794;-41
2022/10/26 01:10:01;;;;;;;14.13;11.20;;;;;;;12.86;80.42;99209.30;1782263;80;20112;-41
2022/10/26 01:12:28;;;;;;;16.55;11.38;;;;;;;12.78;80.68;99208.45;1782392;80;20961;-41
2022/10/26 01:14:54;;;;;;;12.60;9.70;;;;;;;12.81;80.67;99210.44;1782425;80;20941;-41
2022/10/26 01:17:43;;;;;;;13.48;9.75;;;;;;;12.83;80.42;99212.19;1782652;80;21077;-41
2022/10/26 01:20:54;;;;;;;12.93;9.73;;;;;;;12.88;80.28;99206.97;1782946;80;21998;-41
2022/10/26 01:24:01;;;;;;;15.80;10.63;;;;;;;12.92;80.18;99203.72;1686877;84;21128;-41
2022/10/26 01:27:00;;;;;;;12.93;9.55;;;;;;;12.82;80.30;99203.84;1782305;80;21004;-41
2022/10/26 01:30:11;;;;;;;11.43;9.28;;;;;;;12.73;80.51;99201.25;1782360;80;21004;-41
2022/10/26 01:33:11;;;;;;;11.65;9.05;;;;;;;12.75;80.74;99201.06;1782219;80;20981;-41
2022/10/26 01:36:09;;;;;;;13.75;10.15;;;;;;;12.77;80.88;99199.33;1782179;80;20921;-41
2022/10/26 01:38:53;;;;;;;11.43;9.45;;;;;;;12.73;81.03;99197.92;1782435;80;21491;-41
2022/10/26 01:41:34;;;;;;;12.58;8.90;;;;;;;12.71;81.12;99202.19;1781725;80;20976;-41
2022/10/26 01:44:05;;;;;;;11.55;9.83;;;;;;;12.76;81.04;99197.77;1780756;80;20910;-41
2022/10/26 01:46:37;;;;;;;19.55;11.73;;;;;;;12.78;80.99;99200.90;1782504;80;20957;-41
2022/10/26 01:49:10;;;;;;;13.20;10.88;;;;;;;12.74;81.29;99205.51;1782432;80;21177;-41
2022/10/26 01:51:39;;;;;;;14.90;10.23;;;;;;;12.72;81.21;99210.56;1782490;80;20965;-41
2022/10/26 01:54:05;;;;;;;14.70;10.70;;;;;;;12.78;81.37;99205.73;1777888;80;21578;-41
2022/10/26 01:56:38;;;;;;;12.70;10.18;;;;;;;12.83;81.13;99210.07;1782588;80;20953;-41
2022/10/26 02:00:01;;;;;;;12.90;9.88;;;;;;;12.80;81.10;99209.45;1782527;80;21456;-41
2022/10/26 02:02:48;;;;;;;11.38;9.50;;;;;;;12.78;81.28;99214.50;1782538;80;21145;-41
2022/10/26 02:05:49;;;;;;;11.80;9.30;;;;;;;12.80;81.23;99213.52;1782602;80;20917;-41
2022/10/26 02:08:37;;;;;;;10.93;9.20;;;;;;;12.88;81.17;99215.13;1778122;80;20934;-41
2022/10/26 02:11:26;;;;;;;12.80;9.40;;;;;;;12.92;81.05;99217.33;1773974;80;21008;-41
2022/10/26 02:14:13;;;;;;;14.13;9.10;;;;;;;12.90;80.91;99222.35;1773349;80;22033;-41
2022/10/26 02:16:53;;;;;;;9.65;8.63;;;;;;;12.91;81.03;99218.48;1773991;80;22167;-41
2022/10/26 02:19:32;;;;;;;;;;;;;;;12.97;80.72;99220.45;1776654;80;20992;-41
2022/10/26 02:22:04;;;;;;;11.93;8.38;;;;;;;13.04;80.48;99226.53;1774055;80;20184;-41
2022/10/26 02:24:32;;;;;;;10.38;8.88;;;;;;;12.92;80.84;99225.48;1770305;80;21069;-41
2022/10/26 02:26:59;;;;;;;11.45;9.15;;;;;;;12.93;80.82;99222.94;1752319;80;21021;-41
2022/10/26 02:29:26;;;;;;;11.05;8.38;;;;;;;12.96;80.60;99225.71;1751911;80;21150;-41
2022/10/26 02:31:52;;;;;;;9.93;8.88;;;;;;;13.05;80.45;99227.52;1727702;80;20943;-41
2022/10/26 02:34:23;;;;;;;14.28;9.48;;;;;;;13.14;80.27;99230.52;1774293;80;20989;-41
2022/10/26 02:36:49;;;;;;;11.40;8.73;;;;;;;13.13;80.09;99230.30;1774258;80;21023;-41
2022/10/26 02:39:16;;;;;;;12.65;9.30;;;;;;;13.13;80.13;99231.09;1774212;80;20974;-41
2022/10/26 02:41:44;;;;;;;14.53;9.33;;;;;;;13.15;79.94;99232.86;1774076;80;21266;-41
2022/10/26 02:44:25;;;;;;;14.18;9.55;;;;;;;13.19;79.82;99230.94;1774167;80;20957;-41
2022/10/26 02:46:53;;;;;;;14.38;9.95;;;;;;;13.21;79.84;99228.63;1773913;80;21540;-41
2022/10/26 02:49:20;;;;;;;12.30;8.90;;;;;;;13.22;79.75;99226.66;1774186;80;21508;-41
2022/10/26 02:52:10;;;;;;;14.00;9.30;;;;;;;13.21;79.68;99230.56;1768233;80;21073;-41
2022/10/26 02:54:55;;;;;;;12.33;9.95;;;;;;;13.23;79.55;99236.39;1774141;80;21243;-41
2022/10/26 02:57:38;;;;;;;12.85;9.93;;;;;;;13.25;79.70;99230.79;1773889;80;21588;-41
2022/10/26 03:00:12;;;;;;;14.05;9.38;;;;;;;13.26;79.70;99233.72;1774151;80;20965;-41
2022/10/26 03:02:45;;;;;;;12.73;9.68;;;;;;;13.21;79.66;99228.63;1774048;80;20973;-41
2022/10/26 03:05:26;;;;;;;12.50;9.80;;;;;;;13.19;79.64;99232.30;1774315;80;21574;-41
2022/10/26 03:07:54;;;;;;;13.62;10.28;;;;;;;13.16;79.77;99238.52;1772778;80;21092;-41
2022/10/26 03:10:23;;;;;;;16.55;9.73;;;;;;;13.09;80.05;99237.06;1780939;80;20997;-41
2022/10/26 03:12:50;;;;;;;12.88;8.88;;;;;;;13.07;80.29;99240.73;1782577;80;20973;-41
2022/10/26 03:15:17;;;;;;;17.82;11.08;;;;;;;13.11;80.39;99242.13;1782658;80;21970;-41
2022/10/26 03:17:44;;;;;;;14.95;10.48;;;;;;;13.16;80.45;99236.37;1782877;80;20933;-41
2022/10/26 03:20:12;;;;;;;16.12;10.05;;;;;;;13.18;80.45;99242.20;1782740;80;21155;-41
2022/10/26 03:22:39;;;;;;;14.68;9.90;;;;;;;13.13;80.43;99244.70;1782731;80;21534;-41
2022/10/26 03:25:08;;;;;;;11.40;9.28;;;;;;;13.12;80.50;99247.21;1782682;80;21473;-41
2022/10/26 03:27:36;;;;;;;12.82;10.23;;;;;;;13.12;80.53;99245.09;1782502;80;21012;-41
2022/10/26 03:30:05;;;;;;;20.97;10.93;;;;;;;13.11;80.67;99241.59;1782477;80;21087;-41
2022/10/26 03:32:32;;;;;;;13.72;9.78;;;;;;;13.10;80.77;99245.44;1782622;80;21868;-41
2022/10/26 03:34:59;;;;;;;13.85;9.03;;;;;;;13.12;80.83;99245.84;1782367;80;20952;-41
2022/10/26 03:37:26;;;;;;;11.80;9.65;;;;;;;13.19;80.79;99241.04;1782644;80;21000;-41
2022/10/26 03:39:53;;;;;;;14.28;9.88;;;;;;;13.25;80.56;99248.48;1782634;80;21033;-41
2022/10/26 03:42:20;;;;;;;13.62;9.50;;;;;;;13.26;80.61;99244.61;1782590;80;20972;-41
2022/10/26 03:44:47;;;;;;;12.30;8.88;;;;;;;13.28;80.52;99248.29;1782505;80;21250;-41
2022/10/26 03:47:14;;;;;;;11.18;8.45;;;;;;;13.25;80.39;99245.77;1782455;80;21578;-41
2022/10/26 03:49:41;;;;;;;13.15;8.58;;;;;;;13.26;80.27;99244.61;1782423;80;20983;-41
2022/10/26 03:52:09;;;;;;;13.48;8.58;;;;;;;13.30;80.21;99243.26;1782643;80;20960;-41
2022/10/26 03:54:37;;;;;;;9.75;8.15;;;;;;;13.27;80.20;99244.78;1782677;80;21068;-41
2022/10/26 03:57:05;;;;;;;10.18;7.87;;;;;;;13.22;80.29;99245.14;1745632;82;21236;-41
2022/10/26 03:59:32;;;;;;;9.08;7.40;;;;;;;13.21;80.41;99243.60;1745772;82;21091;-41
2022/10/26 04:01:59;;;;;;;11.28;7.05;;;;;;;13.25;80.29;99243.04;1717347;83;21084;-41
2022/10/26 04:04:26;;;;;;;9.63;7.30;;;;;;;13.27;80.20;99240.70;1720482;83;21589;-41
2022/10/26 04:06:54;;;;;;;9.18;7.65;;;;;;;13.24;80.39;99240.11;1718972;83;20969;-41
2022/10/26 04:09:21;;;;;;;9.68;7.12;;;;;;;13.19;80.48;99240.47;1717149;83;21140;-41
2022/10/26 04:11:49;;;;;;;8.35;6.60;;;;;;;13.18;80.57;99241.62;1773834;80;21562;-41
2022/10/26 04:14:15;;;;;;;8.45;7.03;;;;;;;13.20;80.43;99240.67;1773913;80;21027;-41
2022/10/26 04:16:43;;;;;;;12.30;7.42;;;;;;;13.18;80.48;99237.53;1773933;80;21017;-41
2022/10/26 04:19:12;;;;;;;7.50;6.50;;;;;;;13.16;80.74;99235.00;1774020;80;21017;-41
2022/10/26 04:23:34;;;;;;;9.15;6.67;;;;;;;13.18;80.97;99237.53;1779953;79;22526;-41
2022/10/26 04:26:01;;;;;;;10.08;7.80;;;;;;;13.13;80.98;99242.55;1739072;82;21821;-41
2022/10/26 04:28:28;;;;;;;9.60;7.72;;;;;;;13.17;81.02;99243.38;1720169;82;23053;-41
2022/10/26 04:30:55;;;;;;;13.10;8.23;;;;;;;13.18;80.95;99238.89;1696235;82;21542;-41
2022/10/26 04:33:21;;;;;;;9.50;7.15;;;;;;;13.16;81.13;99234.43;1739110;82;21563;-41
2022/10/26 04:35:49;;;;;;;8.28;7.10;;;;;;;13.20;81.12;99240.67;1739229;82;21869;-41
2022/10/26 04:38:15;;;;;;;10.10;8.48;;;;;;;13.25;80.95;99239.53;1739355;82;21031;-41
2022/10/26 04:40:42;;;;;;;12.25;7.70;;;;;;;13.27;80.86;99235.25;1739281;82;21213;-41
2022/10/26 04:43:10;;;;;;;9.78;7.87;;;;;;;13.26;80.92;99235.08;1739053;82;21547;-41
2022/10/26 04:45:38;;;;;;;8.68;6.87;;;;;;;13.28;81.02;99234.68;1739042;82;21015;-41
2022/10/26 04:48:10;;;;;;;9.95;7.50;;;;;;;13.31;80.91;99243.47;1738923;82;21062;-41
2022/10/26 04:50:39;;;;;;;12.20;7.87;;;;;;;13.36;80.66;99237.05;1739301;82;21500;-41
2022/10/26 04:53:06;;;;;;;10.35;7.37;;;;;;;13.40;80.50;99238.45;1739141;82;21784;-41
2022/10/26 04:55:34;;;;;;;10.08;6.87;;;;;;;13.40;80.51;99236.52;1738888;82;20978;-41
2022/10/26 04:58:00;;;;;;;8.78;6.92;;;;;;;13.40;80.40;99239.82;1738850;82;20934;-41
2022/10/26 05:00:28;;;;;;;10.48;7.80;;;;;;;13.38;80.30;99237.47;1738849;82;20978;-41
2022/10/26 05:03:01;;;;;;;9.83;7.17;;;;;;;13.38;80.26;99232.02;1738914;82;21560;-41
2022/10/26 05:05:29;;;;;;;11.60;8.50;;;;;;;13.37;80.31;99248.16;1739069;82;21901;-41
2022/10/26 05:07:57;;;;;;;8.43;7.53;;;;;;;13.31;80.55;99245.58;1739442;82;21587;-41
2022/10/26 05:10:24;;;;;;;9.43;7.33;;;;;;;13.29;80.63;99249.86;1739041;82;20974;-41
2022/10/26 05:12:54;;;;;;;10.98;7.90;;;;;;;13.28;80.75;99250.44;1739047;82;21084;-41
2022/10/26 05:15:21;;;;;;;13.15;8.78;;;;;;;13.33;80.83;99253.37;1739285;81;21046;-41
2022/10/26 05:18:01;;;;;;;11.00;8.20;;;;;;;13.30;80.97;99256.30;1739144;82;21059;-41
2022/10/26 05:20:31;;;;;;;14.63;8.38;;;;;;;13.28;81.00;99250.44;1739124;82;21352;-41
2022/10/26 05:23:02;;;;;;;10.00;8.45;;;;;;;13.30;81.08;99256.88;1748783;81;21017;-41
2022/10/26 05:25:33;;;;;;;13.72;8.68;;;;;;;13.34;81.02;99260.39;1754919;81;21536;-41
2022/10/26 05:28:03;;;;;;;14.75;9.13;;;;;;;13.30;81.04;99261.73;1755130;81;21029;-41
2022/10/26 05:30:30;;;;;;;10.75;8.73;;;;;;;13.29;81.15;99264.25;1755078;81;21070;-41
2022/10/26 05:33:00;;;;;;;11.08;8.08;;;;;;;13.29;81.10;99264.25;1754664;81;21042;-41
2022/10/26 05:35:28;;;;;;;10.53;8.93;;;;;;;13.34;81.08;99270.70;1754301;81;20985;-41
2022/10/26 05:37:55;;;;;;;11.90;9.28;;;;;;;13.40;81.09;99269.20;1754221;81;20982;-41
2022/10/26 05:40:22;;;;;;;11.38;8.63;;;;;;;13.41;80.98;99272.67;1754460;81;21513;-41
2022/10/26 05:42:49;;;;;;;12.45;8.95;;;;;;;13.42;80.90;99269.58;1754290;81;21222;-41
2022/10/26 05:45:19;;;;;;;11.22;8.35;;;;;;;13.47;80.76;99264.35;1754173;81;21476;-41
2022/10/26 05:47:46;;;;;;;12.60;8.95;;;;;;;13.52;80.64;99268.66;1754335;81;21018;-41
2022/10/26 05:50:13;;;;;;;9.45;8.15;;;;;;;13.49;80.61;99264.77;1754402;81;21058;-41
2022/10/26 05:52:43;;;;;;;10.15;7.85;;;;;;;13.45;80.86;99266.69;1754306;81;20970;-41
2022/10/26 05:55:14;;;;;;;11.80;7.92;;;;;;;13.46;80.79;99267.66;1754613;81;21204;-41
2022/10/26 05:57:43;;;;;;;9.98;7.37;;;;;;;13.49;80.74;99269.63;1754200;81;21505;-41
2022/10/26 06:00:24;;;;;;;10.68;8.35;;;;;;;13.51;80.77;99267.12;1754579;81;20974;-41
2022/10/26 06:03:26;;;;;;;10.80;8.05;;;;;;;13.51;80.88;99268.48;1754604;81;20963;-41
2022/10/26 06:05:56;;;;;;;9.88;8.18;;;;;;;13.48;81.05;99276.81;1754401;81;20995;-41
2022/10/26 06:08:26;;;;;;;12.35;8.33;;;;;;;13.50;81.03;99274.50;1754458;81;21074;-41
2022/10/26 06:10:55;;;;;;;14.00;9.10;;;;;;;13.53;81.01;99280.54;1754433;81;21018;-41
2022/10/26 06:13:25;;;;;;;11.33;8.40;;;;;;;13.55;81.15;99285.61;1754305;81;21501;-41
2022/10/26 06:16:03;;;;;;;11.25;7.33;;;;;;;13.56;81.12;99286.58;1754263;81;21524;-41
2022/10/26 06:19:05;;;;;;;13.68;7.75;;;;;;;13.53;81.06;99285.20;1754006;81;21011;-41
2022/10/26 06:21:47;;;;;;;10.75;8.20;;;;;;;13.57;81.15;99290.09;1754356;81;21666;-41
2022/10/26 06:24:44;;;;;;;10.58;7.90;;;;;;;13.59;81.09;99295.37;1754472;81;21549;-41
2022/10/26 06:27:40;;;;;;;10.53;7.92;;;;;;;13.61;81.15;99294.97;1754578;81;21493;-41
2022/10/26 06:30:10;;;;;;;11.03;8.35;;;;;;;13.61;80.92;99300.41;1753895;81;21034;-41
2022/10/26 06:32:39;;;;;;;9.65;7.97;;;;;;;13.66;81.05;99298.69;1754276;81;21034;-41
2022/10/26 06:35:32;;;;;;;13.53;9.18;;;;;;;13.72;80.85;99303.41;1754341;81;21851;-41
2022/10/26 06:38:09;;;;;;;13.00;8.65;;;;;;;13.71;80.70;99303.78;1650084;81;21080;-41
2022/10/26 06:40:36;;;;;;;11.20;8.55;;;;;;;13.74;80.80;99309.84;1754482;81;21018;-41
2022/10/26 06:43:03;;;;;;;14.13;9.18;;;;;;;13.80;80.51;99315.11;1754438;81;21082;-41
2022/10/26 06:45:32;;;;;;;11.75;8.40;;;;;;;13.81;80.22;99311.23;1754753;81;20979;-41
2022/10/26 06:48:08;;;;;;;12.70;8.77;;;;;;;13.78;80.50;99311.43;1754519;81;21278;-41
2022/10/26 06:50:48;;;;;;;10.85;8.60;;;;;;;13.81;80.36;99317.47;1751764;81;20929;-41
2022/10/26 06:53:32;;;;;;;11.00;7.87;;;;;;;13.84;80.04;99320.02;1751423;82;21271;-41
2022/10/26 06:56:01;;;;;;;11.33;8.65;;;;;;;13.84;80.18;99318.66;1751245;82;21021;-41
2022/10/26 06:58:31;;;;;;;10.05;8.48;;;;;;;13.81;80.12;99320.77;1751728;82;21021;-41
2022/10/26 07:00:59;;;;;;;10.58;7.90;;;;;;;13.76;80.10;99319.77;1732536;82;21115;-41
2022/10/26 07:03:25;;;;;;;11.43;8.58;;;;;;;13.77;80.13;99324.84;1751557;81;21021;-41
2022/10/26 07:05:52;;;;;;;14.53;9.23;;;;;;;13.75;80.06;99332.61;1751304;82;21484;-41
2022/10/26 07:08:19;;;;;;;13.20;8.40;;;;;;;13.69;80.30;99328.70;1715285;83;21535;-41
2022/10/26 07:10:47;;;;;;;9.68;8.60;;;;;;;13.69;80.47;99325.19;1751412;81;21589;-41
2022/10/26 07:13:14;;;;;;;11.83;9.38;;;;;;;13.72;80.35;99322.48;1715398;83;21479;-41
2022/10/26 07:15:43;;;;;;;12.33;10.43;;;;;;;13.72;80.27;99323.84;1751166;81;20894;-41
2022/10/26 07:18:10;;;;;;;10.50;8.65;;;;;;;13.69;80.17;99327.92;1751326;82;20986;-41
2022/10/26 07:20:39;;;;;;;12.85;8.73;;;;;;;13.68;80.34;99324.98;1715394;83;21004;-41
2022/10/26 07:23:06;;;;;;;12.07;9.18;;;;;;;13.67;80.41;99334.31;1748137;82;21017;-41
2022/10/26 07:25:34;;;;;;;14.35;9.93;;;;;;;13.65;80.43;99327.88;1707738;83;21125;-41
2022/10/26 07:28:00;;;;;;;12.13;9.53;;;;;;;13.60;80.74;99328.84;1743567;82;21465;-41
2022/10/26 07:30:28;;;;;;;12.60;8.43;;;;;;;13.61;80.84;99334.47;1743532;82;21013;-41
2022/10/26 07:33:12;;;;;;;12.40;9.60;;;;;;;13.65;80.84;99332.57;1743353;82;20974;-41
2022/10/26 09:55:33;;;;;;;11.70;9.68;;;;;;;15.32;73.97;99402.88;1812759;77;22030;-41
2022/10/26 09:58:02;;;;;;;15.65;9.85;;;;;;;15.37;73.45;99401.70;1792209;78;20961;-41
2022/10/26 10:00:29;;;;;;;12.87;9.57;;;;;;;15.27;73.42;99399.17;1773040;79;21120;-41
2022/10/26 10:02:57;;;;;;;13.30;9.60;;;;;;;15.23;73.22;99403.85;1776001;79;21003;-41
2022/10/26 10:05:33;;;;;;;10.75;9.13;;;;;;;15.21;73.27;99402.86;1756419;80;20961;-41
2022/10/26 10:08:25;;;;;;;12.37;8.98;;;;;;;15.19;73.51;99405.80;1775860;79;21518;-42
2022/10/26 10:10:59;;;;;;;12.35;10.63;;;;;;;15.13;73.60;99405.41;1773760;80;20894;-42
2022/10/26 10:13:30;;;;;;;10.03;8.70;;;;;;;15.04;73.69;99405.00;1770953;80;23145;-41
2022/10/26 10:16:06;;;;;;;12.68;9.15;;;;;;;15.00;73.89;99396.03;1788234;79;20992;-41
2022/10/26 10:18:33;;;;;;;13.78;9.23;;;;;;;15.01;73.97;99398.16;1781165;79;20956;-42
2022/10/26 10:21:01;;;;;;;16.60;10.45;;;;;;;15.04;73.59;99398.77;1782933;78;21008;-41
2022/10/26 10:23:34;;;;;;;12.93;9.65;;;;;;;15.04;73.70;99395.45;1770734;79;21025;-41
2022/10/26 10:26:10;;;;;;;15.32;9.60;;;;;;;15.06;74.08;99396.41;1798529;79;21224;-41
2022/10/26 10:28:37;;;;;;;11.35;8.75;;;;;;;15.08;73.87;99398.95;1805498;78;21631;-42
2022/10/26 10:31:20;;;;;;;13.75;8.63;;;;;;;15.14;73.74;99398.78;1787954;78;20926;-41
2022/10/26 10:33:48;;;;;;;11.93;8.58;;;;;;;15.13;72.95;99402.67;1801131;79;20989;-41
2022/10/26 10:36:19;;;;;;;12.50;8.60;;;;;;;15.06;73.40;99405.38;1786104;79;21592;-42
2022/10/26 10:38:52;;;;;;;12.07;7.53;;;;;;;14.97;73.46;99405.56;1783020;78;21475;-42
2022/10/26 10:41:35;;;;;;;10.15;8.40;;;;;;;14.87;73.55;99405.73;1776679;78;20950;-41
2022/10/26 10:44:20;;;;;;;11.65;9.13;;;;;;;14.74;74.03;99410.78;1783173;78;21505;-42
2022/10/26 10:46:47;;;;;;;13.45;8.75;;;;;;;14.62;74.81;99410.37;1803028;79;20965;-41
2022/10/26 10:49:20;;;;;;;16.30;9.05;;;;;;;14.48;75.44;99412.44;1807111;79;21069;-42
2022/10/26 10:51:47;;;;;;;12.75;9.08;;;;;;;14.46;75.90;99412.05;1806753;78;21105;-41
2022/10/26 10:54:28;;;;;;;13.60;9.93;;;;;;;14.45;76.43;99410.48;1789171;78;20918;-41
2022/10/26 10:57:13;;;;;;;16.42;11.35;;;;;;;14.44;76.88;99413.59;1793924;79;21020;-41
2022/10/26 11:00:03;;;;;;;16.02;9.80;;;;;;;14.46;77.48;99409.91;1793996;78;21031;-42
2022/10/26 11:03:01;;;;;;;15.98;10.13;;;;;;;14.56;77.41;99413.27;1809669;78;20986;-41
2022/10/26 11:06:08;;;;;;;13.48;10.40;;;;;;;14.70;77.07;99409.21;1806003;78;21219;-41
2022/10/26 11:08:44;;;;;;;15.48;10.68;;;;;;;14.77;76.63;99414.09;1799714;78;21020;-41
2022/10/26 11:11:41;;;;;;;14.65;9.65;;;;;;;14.85;76.67;99408.67;1782236;79;20973;-41
2022/10/26 11:14:16;;;;;;;13.70;10.00;;;;;;;15.00;76.85;99408.31;1781930;79;21028;-41
2022/10/26 11:16:46;;;;;;;13.30;9.30;;;;;;;15.31;76.23;99405.98;1749165;80;21600;-41
2022/10/26 11:19:19;;;;;;;13.40;9.90;;;;;;;15.61;74.96;99410.52;1803315;78;21096;-41
2022/10/26 11:21:50;;;;;;;13.78;10.05;;;;;;;15.86;72.69;99405.02;1765926;79;20988;-41
2022/10/26 11:24:25;;;;;;;16.02;9.05;;;;;;;16.05;72.48;99401.85;1795228;78;20929;-42
2022/10/26 11:27:00;;;;;;;11.57;9.15;;;;;;;16.25;71.76;99402.19;1789918;79;21561;-41
2022/10/26 11:29:44;;;;;;;13.32;9.28;;;;;;;16.56;70.59;99400.48;1786463;78;21883;-42
2022/10/26 11:32:25;;;;;;;13.85;9.10;;;;;;;16.86;67.74;99402.91;1788457;79;21217;-41
2022/10/26 11:35:15;;;;;;;11.38;9.58;;;;;;;17.09;66.78;99405.72;1770411;79;20944;-41
2022/10/26 11:38:03;;;;;;;12.30;8.60;;;;;;;17.22;65.76;99406.78;1790441;79;20998;-41
2022/10/26 11:40:44;;;;;;;12.25;8.78;;;;;;;17.30;65.12;99405.55;1801375;79;21021;-41
2022/10/26 11:43:29;;;;;;;13.20;8.93;;;;;;;17.32;64.57;99404.56;1788380;79;21072;-42
2022/10/26 11:46:12;;;;;;;12.53;8.93;;;;;;;17.18;64.88;99408.19;1787970;79;22088;-41
2022/10/26 11:49:17;;;;;;;12.18;9.25;;;;;;;16.98;65.02;99405.00;1793764;78;21506;-41
2022/10/26 11:52:09;;;;;;;11.38;7.58;;;;;;;16.80;66.14;99407.23;1792118;79;21573;-42
2022/10/26 11:55:00;;;;;;;11.75;8.33;;;;;;;16.60;65.88;99405.41;1784080;78;20961;-41
2022/10/26 11:57:27;;;;;;;19.15;8.70;;;;;;;16.39;66.92;99407.02;1805703;79;21370;-41
2022/10/26 12:00:08;;;;;;;10.35;7.83;;;;;;;16.07;67.61;99382.49;1805140;79;21272;-41
2022/10/26 12:02:41;;;;;;;11.97;7.95;;;;;;;16.11;68.19;99409.86;1793870;78;21471;-42
2022/10/26 12:05:36;;;;;;;10.65;7.17;;;;;;;16.01;68.11;99409.29;1801397;79;20922;-41
2022/10/26 12:08:07;;;;;;;12.10;8.43;;;;;;;15.94;68.31;99404.61;1803547;79;21307;-41
2022/10/26 12:10:37;;;;;;;11.33;7.92;;;;;;;15.82;68.61;99406.40;1804874;79;21023;-42
2022/10/26 12:13:39;;;;;;;10.60;6.72;;;;;;;15.79;68.97;99405.80;1791888;79;21158;-42
2022/10/26 12:16:22;;;;;;;6.80;5.95;;;;;;;15.90;69.13;99414.77;1774773;80;21179;-41
2022/10/26 12:18:57;;;;;;;7.12;5.75;;;;;;;15.98;68.17;99423.15;1795278;78;21007;-42
2022/10/26 12:21:29;;;;;;;6.47;5.37;;;;;;;15.99;68.19;99417.09;1780838;79;20978;-41
2022/10/26 12:24:01;;;;;;;8.33;7.10;;;;;;;15.97;68.56;99422.98;1779725;79;21048;-41
2022/10/26 12:26:36;;;;;;;9.70;6.53;;;;;;;15.98;69.13;99421.78;1784292;78;23155;-41
2022/10/26 12:29:09;;;;;;;8.20;6.15;;;;;;;15.97;69.13;99419.46;1794376;79;21000;-41
2022/10/26 12:31:41;;;;;;;9.43;6.65;;;;;;;15.93;69.75;99424.13;1788688;78;20974;-42
2022/10/26 12:34:14;;;;;;;9.95;6.85;;;;;;;15.85;70.49;99432.95;1791917;79;20989;-41
2022/10/26 12:37:01;;;;;;;10.08;7.37;;;;;;;15.75;71.24;99439.20;1802079;79;21154;-41
2022/10/26 12:39:37;;;;;;;9.83;6.58;;;;;;;15.67;72.11;99440.39;1769985;78;22123;-41
2022/10/26 12:42:09;;;;;;;9.88;5.67;;;;;;;15.64;72.62;99443.88;1800660;79;21597;-41
2022/10/26 12:44:45;;;;;;;8.48;5.35;;;;;;;15.68;72.65;99452.88;1769914;79;21546;-41
2022/10/26 12:47:33;;;;;;;6.90;5.05;;;;;;;15.76;72.80;99453.06;1781735;78;21012;-42
2022/10/26 12:50:10;;;;;;;6.15;4.00;;;;;;;16.00;73.04;99449.53;1788095;78;21072;-41
2022/10/26 12:52:45;;;;;;;4.25;3.35;;;;;;;16.50;71.44;99443.92;1806781;78;21219;-42
2022/10/26 12:55:20;;;;;;;7.33;3.77;;;;;;;17.01;70.87;99441.94;1798322;79;20962;-41
2022/10/26 12:58:25;;;;;;;5.28;3.62;;;;;;;17.45;68.77;99446.73;1806832;78;20922;-41
2022/10/26 13:01:05;;;;;;;5.08;3.75;;;;;;;17.61;66.91;99436.08;1775343;79;21130;-41
2022/10/26 13:03:53;;;;;;;3.90;3.42;;;;;;;17.83;65.61;99438.61;1805537;78;21475;-41
2022/10/26 13:07:13;;;;;;;6.42;3.60;;;;;;;18.11;64.25;99447.94;1771881;78;21117;-42
2022/10/26 13:09:40;;;;;;;6.47;3.65;;;;;;;18.39;64.01;99447.66;1722719;81;28344;-41
2022/10/26 13:12:07;;;;;;;7.08;4.00;;;;;;;18.62;63.28;99460.15;1690693;82;21645;-41
2022/10/26 13:14:39;;;;;;;4.45;3.42;;;;;;;18.66;62.89;99470.48;1759330;79;21127;-41
2022/10/26 13:17:06;;;;;;;5.42;3.15;;;;;;;18.35;60.37;99466.10;1780909;79;20977;-41
2022/10/26 13:19:45;;;;;;;6.67;3.92;;;;;;;17.82;61.22;99476.22;1798503;79;21160;-42
2022/10/26 13:22:17;;;;;;;5.78;4.30;;;;;;;17.42;62.41;99469.48;1805639;78;21004;-41
2022/10/26 13:24:53;;;;;;;6.72;4.95;;;;;;;17.01;63.96;99473.44;1800467;78;20981;-42
2022/10/26 13:27:34;;;;;;;8.60;3.90;;;;;;;16.78;65.54;99471.80;1802426;79;20985;-41
2022/10/26 13:30:18;;;;;;;7.97;3.83;;;;;;;16.61;66.27;99472.05;1788538;78;21584;-41
2022/10/26 13:32:53;;;;;;;5.75;3.87;;;;;;;16.46;66.68;99467.77;1801447;78;21220;-41
2022/10/26 13:35:22;;;;;;;4.75;3.80;;;;;;;16.26;67.20;99470.78;1793478;79;20965;-42
2022/10/26 13:37:51;;;;;;;5.60;3.20;;;;;;;16.08;67.48;99478.41;1806702;79;21000;-41
2022/10/26 13:40:26;;;;;;;4.03;3.25;;;;;;;15.93;67.68;99484.28;1778179;79;21521;-41
2022/10/26 13:42:57;;;;;;;8.60;3.47;;;;;;;15.79;68.21;99483.71;1769908;79;21474;-41
2022/10/26 13:45:29;;;;;;;4.65;3.12;;;;;;;15.73;68.29;99488.61;1795038;79;21755;-42
2022/10/26 13:48:39;;;;;;;5.65;3.92;;;;;;;15.65;68.51;99488.59;1806736;79;20971;-41
2022/10/26 13:51:21;;;;;;;5.08;3.35;;;;;;;15.60;68.73;99489.56;1779158;79;21503;-41
2022/10/26 13:54:04;;;;;;;5.00;3.87;;;;;;;15.52;69.00;99494.84;1784961;79;20988;-41
2022/10/26 13:56:34;;;;;;;5.60;3.60;;;;;;;15.42;69.31;99499.67;1794319;79;21080;-41
2022/10/26 13:59:04;;;;;;;;;;;;;;;15.31;69.81;99497.49;1797435;79;21105;-41
2022/10/26 14:01:31;;;;;;;5.40;3.37;;;;;;;15.28;70.08;99498.28;1774528;79;20122;-42
2022/10/26 14:03:57;;;;;;;4.85;3.95;;;;;;;15.24;70.22;99503.74;1787802;78;20973;-41
2022/10/26 14:06:36;;;;;;;8.05;4.47;;;;;;;15.22;70.30;99504.70;1790253;79;21410;-42
2022/10/26 14:09:08;;;;;;;5.95;3.92;;;;;;;15.14;70.51;99503.13;1785583;79;21103;-41
2022/10/26 14:11:46;;;;;;;7.62;4.30;;;;;;;15.03;70.75;99507.19;1797764;79;21234;-41
2022/10/26 14:14:23;;;;;;;5.75;4.20;;;;;;;14.97;71.14;99510.08;1770129;79;21151;-41
2022/10/26 14:16:50;;;;;;;6.00;3.62;;;;;;;14.96;71.37;99516.70;1795465;79;21008;-41
2022/10/26 14:19:37;;;;;;;4.12;3.72;;;;;;;14.98;71.55;99519.06;1785702;79;21271;-41
2022/10/26 14:22:04;;;;;;;5.80;4.15;;;;;;;15.00;71.60;99527.08;1773888;79;21079;-42